^^
Saratoga-Weather Station Historical Data
Daily Summary for January 21, 2021 Units:  Both    English   Metric
Daily Weekly Monthly Yearly Custom
  High: Low: Average:
Temperature: 52.3 °F /  11.3 °C 42.3 °F /  5.7 °C 48.7 °F /  9.3 °C
Dew Point: 46.8 °F /  8.2 °C 39.7 °F /  4.3 °C 42.8 °F /  6 °C
Humidity: 93% 65% 81%
Wind Speed: 16mph /  25.7km/h - 3.6mph /  5.8km/h
Wind Gust: 19mph /  30.6km/h - -
Wind- - SSW
Pressure: 29.5 in /  998.3 hPa 29.2 in /  989.8 hPa -
Precipitation: 0.35 in /  8.9 mm    
Historical Graphs
 
 
Tabular Data for January 21, 2021
Time Temperature Dew Point Pressure Wind Wind Speed Wind Gust Humidity Rainfall Rate (Hourly) solar
00:01 51.6 °F /  10.9 °C 41.4 °F /  5.2 °C 29.4in /  996.6hPa NNW 2mph /  3.2km/h 9mph /  14.5km/h 68% 0in /  0.0mm 0 W/m2
00:06 51.4 °F /  10.8 °C 41.2 °F /  5.1 °C 29.4in /  996.6hPa NW 2.9mph /  4.7km/h 8mph /  12.9km/h 68% 0in /  0.0mm 0 W/m2
00:11 51.4 °F /  10.8 °C 41.2 °F /  5.1 °C 29.4in /  996.3hPa NE 4mph /  6.4km/h 8mph /  12.9km/h 68% 0in /  0.0mm 0 W/m2
00:16 51.4 °F /  10.8 °C 41.2 °F /  5.1 °C 29.4in /  996.6hPa ENE 4mph /  6.4km/h 7mph /  11.3km/h 68% 0in /  0.0mm 0 W/m2
00:21 51.4 °F /  10.8 °C 41.2 °F /  5.1 °C 29.4in /  996.3hPa NNW 4.9mph /  7.9km/h 8mph /  12.9km/h 68% 0in /  0.0mm 0 W/m2
00:26 51.4 °F /  10.8 °C 40.8 °F /  4.9 °C 29.4in /  996.3hPa ENE 4.9mph /  7.9km/h 12mph /  19.3km/h 67% 0in /  0.0mm 0 W/m2
00:31 51.6 °F /  10.9 °C 41.4 °F /  5.2 °C 29.4in /  996.3hPa NE 2.9mph /  4.7km/h 4mph /  6.4km/h 68% 0in /  0.0mm 0 W/m2
00:36 51.4 °F /  10.8 °C 41.2 °F /  5.1 °C 29.4in /  996.3hPa North 4mph /  6.4km/h 12mph /  19.3km/h 68% 0in /  0.0mm 0 W/m2
00:41 51.4 °F /  10.8 °C 41.2 °F /  5.1 °C 29.4in /  995.9hPa ENE 4.9mph /  7.9km/h 9mph /  14.5km/h 68% 0in /  0.0mm 0 W/m2
00:46 51.4 °F /  10.8 °C 41.2 °F /  5.1 °C 29.4in /  995.9hPa NNE 4.9mph /  7.9km/h 6mph /  9.7km/h 68% 0in /  0.0mm 0 W/m2
00:51 51.6 °F /  10.9 °C 41 °F /  5 °C 29.4in /  995.9hPa North 0.9mph /  1.4km/h 8mph /  12.9km/h 67% 0in /  0.0mm 0 W/m2
00:56 51.6 °F /  10.9 °C 41 °F /  5 °C 29.4in /  995.6hPa SE 0.9mph /  1.4km/h 7mph /  11.3km/h 67% 0in /  0.0mm 0 W/m2
01:01 51.6 °F /  10.9 °C 41 °F /  5 °C 29.4in /  995.6hPa North 0.9mph /  1.4km/h 5mph /  8km/h 67% 0in /  0.0mm 0 W/m2
01:06 51.6 °F /  10.9 °C 41 °F /  5 °C 29.4in /  995.6hPa ESE 6mph /  9.7km/h 9mph /  14.5km/h 67% 0in /  0.0mm 0 W/m2
01:11 52 °F /  11.1 °C 41.4 °F /  5.2 °C 29.4in /  995.3hPa ESE 2.9mph /  4.7km/h 6mph /  9.7km/h 67% 0in /  0.0mm 0 W/m2
01:16 52 °F /  11.1 °C 41 °F /  5 °C 29.4in /  995.3hPa WSW 2.9mph /  4.7km/h 12mph /  19.3km/h 66% 0in /  0.0mm 0 W/m2
01:21 52 °F /  11.1 °C 41 °F /  5 °C 29.4in /  995.3hPa North 4mph /  6.4km/h 9mph /  14.5km/h 66% 0in /  0.0mm 0 W/m2
01:26 52 °F /  11.1 °C 41 °F /  5 °C 29.4in /  995.3hPa NW 4.9mph /  7.9km/h 12mph /  19.3km/h 66% 0in /  0.0mm 0 W/m2
01:31 52 °F /  11.1 °C 41 °F /  5 °C 29.4in /  995.3hPa NNW 2mph /  3.2km/h 10mph /  16.1km/h 66% 0in /  0.0mm 0 W/m2
01:36 52.2 °F /  11.2 °C 41.5 °F /  5.3 °C 29.4in /  995.3hPa North 4mph /  6.4km/h 7mph /  11.3km/h 67% 0in /  0.0mm 0 W/m2
01:41 52.3 °F /  11.3 °C 41.4 °F /  5.2 °C 29.4in /  995.3hPa NNW 4mph /  6.4km/h 8mph /  12.9km/h 66% 0in /  0.0mm 0 W/m2
01:46 52.3 °F /  11.3 °C 41 °F /  5 °C 29.4in /  995.3hPa ESE 2mph /  3.2km/h 13mph /  20.9km/h 65% 0in /  0.0mm 0 W/m2
01:51 52.3 °F /  11.3 °C 41 °F /  5 °C 29.4in /  995.3hPa NNW 6mph /  9.7km/h 6mph /  9.7km/h 65% 0in /  0.0mm 0 W/m2
01:56 52.3 °F /  11.3 °C 41 °F /  5 °C 29.4in /  995.3hPa North 4mph /  6.4km/h 11mph /  17.7km/h 65% 0in /  0.0mm 0 W/m2
02:01 52.3 °F /  11.3 °C 41.4 °F /  5.2 °C 29.4in /  994.9hPa WSW 8.1mph /  13km/h 9mph /  14.5km/h 66% 0in /  0.0mm 0 W/m2
02:06 52.2 °F /  11.2 °C 41.2 °F /  5.1 °C 29.4in /  994.6hPa NE 2mph /  3.2km/h 11mph /  17.7km/h 66% 0in /  0.0mm 0 W/m2
02:11 52.2 °F /  11.2 °C 41.2 °F /  5.1 °C 29.4in /  994.6hPa NNE 6mph /  9.7km/h 9mph /  14.5km/h 66% 0in /  0.0mm 0 W/m2
02:16 52.2 °F /  11.2 °C 41.2 °F /  5.1 °C 29.4in /  994.6hPa NE 4.9mph /  7.9km/h 9mph /  14.5km/h 66% 0in /  0.0mm 0 W/m2
02:21 52.2 °F /  11.2 °C 41.2 °F /  5.1 °C 29.4in /  994.6hPa NW 2.9mph /  4.7km/h 14mph /  22.5km/h 66% 0in /  0.0mm 0 W/m2
02:26 52 °F /  11.1 °C 41 °F /  5 °C 29.4in /  994.6hPa NE 4.9mph /  7.9km/h 11mph /  17.7km/h 66% 0in /  0.0mm 0 W/m2
02:31 52 °F /  11.1 °C 41.4 °F /  5.2 °C 29.4in /  994.6hPa North 4.9mph /  7.9km/h 6mph /  9.7km/h 67% 0in /  0.0mm 0 W/m2
02:36 51.8 °F /  11 °C 41.2 °F /  5.1 °C 29.4in /  994.6hPa WNW 6mph /  9.7km/h 11mph /  17.7km/h 67% 0in /  0.0mm 0 W/m2
02:41 52 °F /  11.1 °C 41.4 °F /  5.2 °C 29.4in /  994.6hPa NNW 4.9mph /  7.9km/h 6mph /  9.7km/h 67% 0in /  0.0mm 0 W/m2
02:46 51.8 °F /  11 °C 41.2 °F /  5.1 °C 29.4in /  994.9hPa North 2.9mph /  4.7km/h 6mph /  9.7km/h 67% 0in /  0.0mm 0 W/m2
02:51 52 °F /  11.1 °C 41.4 °F /  5.2 °C 29.4in /  994.6hPa ENE 4mph /  6.4km/h 7mph /  11.3km/h 67% 0in /  0.0mm 0 W/m2
02:56 52 °F /  11.1 °C 41.4 °F /  5.2 °C 29.4in /  994.2hPa NE 0.9mph /  1.4km/h 12mph /  19.3km/h 67% 0in /  0.0mm 0 W/m2
03:01 52 °F /  11.1 °C 41.4 °F /  5.2 °C 29.4in /  994.2hPa SE 2.9mph /  4.7km/h 6mph /  9.7km/h 67% 0in /  0.0mm 0 W/m2
03:06 51.8 °F /  11 °C 41.2 °F /  5.1 °C 29.4in /  994.2hPa NE 6.9mph /  11.1km/h 10mph /  16.1km/h 67% 0in /  0.0mm 0 W/m2
03:11 51.6 °F /  10.9 °C 41 °F /  5 °C 29.4in /  993.9hPa NW 2.9mph /  4.7km/h 10mph /  16.1km/h 67% 0in /  0.0mm 0 W/m2
03:16 52 °F /  11.1 °C 41.4 °F /  5.2 °C 29.4in /  993.9hPa ENE 4mph /  6.4km/h 5mph /  8km/h 67% 0in /  0.0mm 0 W/m2
03:21 52 °F /  11.1 °C 41.4 °F /  5.2 °C 29.4in /  994.2hPa NW 2mph /  3.2km/h 10mph /  16.1km/h 67% 0in /  0.0mm 0 W/m2
03:26 52 °F /  11.1 °C 41.4 °F /  5.2 °C 29.4in /  994.2hPa North 8.9mph /  14.3km/h 9mph /  14.5km/h 67% 0in /  0.0mm 0 W/m2
03:31 51.8 °F /  11 °C 41.5 °F /  5.3 °C 29.4in /  993.9hPa WNW 11mph /  17.7km/h 11mph /  17.7km/h 68% 0in /  0.0mm 0 W/m2
03:37 52 °F /  11.1 °C 41.4 °F /  5.2 °C 29.4in /  993.9hPa NNW 13mph /  20.9km/h 13mph /  20.9km/h 67% 0in /  0.0mm 0 W/m2
03:42 52 °F /  11.1 °C 41.7 °F /  5.4 °C 29.4in /  993.9hPa West 2mph /  3.2km/h 11mph /  17.7km/h 68% 0in /  0.0mm 0 W/m2
03:47 51.8 °F /  11 °C 41.5 °F /  5.3 °C 29.4in /  993.9hPa North 4mph /  6.4km/h 11mph /  17.7km/h 68% 0in /  0.0mm 0 W/m2
03:52 51.6 °F /  10.9 °C 41.7 °F /  5.4 °C 29.4in /  993.9hPa NNE 6mph /  9.7km/h 12mph /  19.3km/h 69% 0in /  0.0mm 0 W/m2
03:57 51.6 °F /  10.9 °C 41.7 °F /  5.4 °C 29.3in /  993.6hPa North 4.9mph /  7.9km/h 9mph /  14.5km/h 69% 0in /  0.0mm 0 W/m2
04:02 51.6 °F /  10.9 °C 41.7 °F /  5.4 °C 29.3in /  993.6hPa NNE 13mph /  20.9km/h 13mph /  20.9km/h 69% 0in /  0.0mm 0 W/m2
04:07 51.8 °F /  11 °C 41.9 °F /  5.5 °C 29.3in /  993.6hPa East 4mph /  6.4km/h 14mph /  22.5km/h 69% 0in /  0.0mm 0 W/m2
04:12 51.6 °F /  10.9 °C 41.7 °F /  5.4 °C 29.3in /  993.6hPa NNW 2.9mph /  4.7km/h 12mph /  19.3km/h 69% 0in /  0.0mm 0 W/m2
04:17 51.4 °F /  10.8 °C 41.9 °F /  5.5 °C 29.3in /  993.6hPa NW 2.9mph /  4.7km/h 14mph /  22.5km/h 70% 0in /  0.0mm 0 W/m2
04:22 51.4 °F /  10.8 °C 41.9 °F /  5.5 °C 29.3in /  993.6hPa NE 2.9mph /  4.7km/h 10mph /  16.1km/h 70% 0in /  0.0mm 0 W/m2
04:27 51.6 °F /  10.9 °C 42.1 °F /  5.6 °C 29.4in /  993.9hPa ENE 14.1mph /  22.7km/h 15mph /  24.1km/h 70% 0in /  0.0mm 0 W/m2
04:32 51.6 °F /  10.9 °C 42.1 °F /  5.6 °C 29.4in /  993.9hPa ENE 6mph /  9.7km/h 8mph /  12.9km/h 70% 0in /  0.0mm 0 W/m2
04:37 51.6 °F /  10.9 °C 42.4 °F /  5.8 °C 29.4in /  993.9hPa NW 8.1mph /  13km/h 15mph /  24.1km/h 71% 0in /  0.0mm 0 W/m2
04:42 51.4 °F /  10.8 °C 42.4 °F /  5.8 °C 29.3in /  993.6hPa NNW 2mph /  3.2km/h 11mph /  17.7km/h 71% 0in /  0.0mm 0 W/m2
04:47 51.4 °F /  10.8 °C 41.9 °F /  5.5 °C 29.4in /  993.9hPa NE 2.9mph /  4.7km/h 10mph /  16.1km/h 70% 0in /  0.0mm 0 W/m2
04:52 51.4 °F /  10.8 °C 41.9 °F /  5.5 °C 29.4in /  993.9hPa North 2.9mph /  4.7km/h 12mph /  19.3km/h 70% 0in /  0.0mm 0 W/m2
04:57 51.8 °F /  11 °C 42.3 °F /  5.7 °C 29.3in /  993.6hPa WNW 4mph /  6.4km/h 17mph /  27.4km/h 70% 0in /  0.0mm 0 W/m2
05:02 52 °F /  11.1 °C 42.4 °F /  5.8 °C 29.4in /  993.9hPa ENE 4mph /  6.4km/h 5mph /  8km/h 70% 0in /  0.0mm 0 W/m2
05:07 51.8 °F /  11 °C 42.3 °F /  5.7 °C 29.3in /  993.6hPa North 4mph /  6.4km/h 10mph /  16.1km/h 70% 0in /  0.0mm 0 W/m2
05:12 51.8 °F /  11 °C 42.6 °F /  5.9 °C 29.3in /  993.6hPa ENE 8.1mph /  13km/h 9mph /  14.5km/h 71% 0in /  0.0mm 0 W/m2
05:17 51.6 °F /  10.9 °C 42.4 °F /  5.8 °C 29.3in /  993.6hPa North 0.9mph /  1.4km/h 7mph /  11.3km/h 71% 0in /  0.0mm 0 W/m2
05:22 51.6 °F /  10.9 °C 42.4 °F /  5.8 °C 29.3in /  993.2hPa ESE 6.9mph /  11.1km/h 12mph /  19.3km/h 71% 0in /  0.0mm 0 W/m2
05:27 52 °F /  11.1 °C 42.4 °F /  5.8 °C 29.3in /  993.6hPa NNW 4mph /  6.4km/h 16mph /  25.7km/h 70% 0in /  0.0mm 0 W/m2
05:32 52 °F /  11.1 °C 42.4 °F /  5.8 °C 29.3in /  993.6hPa NW 4mph /  6.4km/h 10mph /  16.1km/h 70% 0in /  0.0mm 0 W/m2
05:37 52.2 °F /  11.2 °C 42.6 °F /  5.9 °C 29.3in /  993.6hPa WSW 2.9mph /  4.7km/h 16mph /  25.7km/h 70% 0in /  0.0mm 0 W/m2
05:42 52.2 °F /  11.2 °C 42.3 °F /  5.7 °C 29.3in /  993.6hPa North 2.9mph /  4.7km/h 10mph /  16.1km/h 69% 0in /  0.0mm 0 W/m2
05:47 52.2 °F /  11.2 °C 42.6 °F /  5.9 °C 29.3in /  993.6hPa East 2.9mph /  4.7km/h 7mph /  11.3km/h 70% 0in /  0.0mm 0 W/m2
05:52 52.2 °F /  11.2 °C 42.6 °F /  5.9 °C 29.3in /  993.6hPa NNW 8.9mph /  14.3km/h 13mph /  20.9km/h 70% 0in /  0.0mm 0 W/m2
05:57 52.2 °F /  11.2 °C 42.6 °F /  5.9 °C 29.3in /  993.6hPa West 6.9mph /  11.1km/h 9mph /  14.5km/h 70% 0in /  0.0mm 0 W/m2
06:02 52.2 °F /  11.2 °C 42.6 °F /  5.9 °C 29.3in /  993.6hPa SSE 0.9mph /  1.4km/h 10mph /  16.1km/h 70% 0in /  0.0mm 0 W/m2
06:07 52.2 °F /  11.2 °C 42.6 °F /  5.9 °C 29.4in /  993.9hPa ENE 0.9mph /  1.4km/h 11mph /  17.7km/h 70% 0in /  0.0mm 0 W/m2
06:12 52.2 °F /  11.2 °C 42.6 °F /  5.9 °C 29.4in /  993.9hPa SE 4.9mph /  7.9km/h 16mph /  25.7km/h 70% 0in /  0.0mm 0 W/m2
06:17 52.3 °F /  11.3 °C 42.8 °F /  6 °C 29.3in /  993.6hPa ENE 8.1mph /  13km/h 10mph /  16.1km/h 70% 0in /  0.0mm 0 W/m2
06:22 52.2 °F /  11.2 °C 43 °F /  6.1 °C 29.4in /  993.9hPa SW 2.9mph /  4.7km/h 18mph /  29km/h 71% 0in /  0.0mm 0 W/m2
06:27 52.2 °F /  11.2 °C 43.3 °F /  6.3 °C 29.3in /  993.6hPa East 8.9mph /  14.3km/h 14mph /  22.5km/h 72% 0in /  0.0mm 0 W/m2
06:32 51.8 °F /  11 °C 43.3 °F /  6.3 °C 29.3in /  993.6hPa ENE 14.1mph /  22.7km/h 18mph /  29km/h 73% 0in /  0.0mm 0 W/m2
06:37 51.6 °F /  10.9 °C 43.3 °F /  6.3 °C 29.3in /  993.6hPa NW 6mph /  9.7km/h 15mph /  24.1km/h 73% 0in /  0.0mm 0 W/m2
06:42 51.4 °F /  10.8 °C 43.5 °F /  6.4 °C 29.3in /  993.6hPa WNW 16mph /  25.7km/h 16mph /  25.7km/h 74% 0in /  0.0mm 0 W/m2
06:47 51.4 °F /  10.8 °C 43.7 °F /  6.5 °C 29.3in /  993.6hPa ENE 2mph /  3.2km/h 14mph /  22.5km/h 75% 0in /  0.0mm 0 W/m2
06:52 51.4 °F /  10.8 °C 43.7 °F /  6.5 °C 29.3in /  993.6hPa NNW 4mph /  6.4km/h 12mph /  19.3km/h 75% 0in /  0.0mm 0 W/m2
06:57 51.3 °F /  10.7 °C 43.9 °F /  6.6 °C 29.3in /  993.6hPa NNW 2mph /  3.2km/h 14mph /  22.5km/h 76% 0in /  0.0mm 0 W/m2
07:02 51.1 °F /  10.6 °C 43.7 °F /  6.5 °C 29.3in /  993.6hPa NNW 2.9mph /  4.7km/h 14mph /  22.5km/h 76% 0in /  0.0mm 0 W/m2
07:07 50.9 °F /  10.5 °C 44.2 °F /  6.8 °C 29.3in /  993.6hPa East 6mph /  9.7km/h 19mph /  30.6km/h 78% 0in /  0.0mm 0 W/m2
07:12 50.7 °F /  10.4 °C 44.1 °F /  6.7 °C 29.3in /  993.6hPa NNW 2.9mph /  4.7km/h 9mph /  14.5km/h 78% 0in /  0.0mm 0 W/m2
07:17 50.5 °F /  10.3 °C 44.2 °F /  6.8 °C 29.3in /  993.6hPa NW 6mph /  9.7km/h 19mph /  30.6km/h 79% 0in /  0.0mm 0 W/m2
07:22 50.4 °F /  10.2 °C 44.4 °F /  6.9 °C 29.3in /  993.6hPa NNW 4mph /  6.4km/h 7mph /  11.3km/h 80% 0in /  0.0mm 0 W/m2
07:27 49.8 °F /  9.9 °C 44.6 °F /  7 °C 29.4in /  993.9hPa NNE 2mph /  3.2km/h 11mph /  17.7km/h 82% 0in /  0.0mm 0 W/m2
07:32 49.6 °F /  9.8 °C 44.8 °F /  7.1 °C 29.4in /  993.9hPa North 2.9mph /  4.7km/h 8mph /  12.9km/h 83% 0in /  0.0mm 0 W/m2
07:37 49.5 °F /  9.7 °C 44.8 °F /  7.1 °C 29.4in /  993.9hPa NE 0.9mph /  1.4km/h 12mph /  19.3km/h 84% 0in /  0.0mm 0 W/m2
07:42 49.3 °F /  9.6 °C 45 °F /  7.2 °C 29.4in /  993.9hPa NNW 2.9mph /  4.7km/h 9mph /  14.5km/h 85% 0.01in /  0.2mm 0 W/m2
07:47 48.9 °F /  9.4 °C 45 °F /  7.2 °C 29.4in /  994.2hPa NW 2.9mph /  4.7km/h 12mph /  19.3km/h 86% 0.02in /  0.5mm 0 W/m2
07:52 48.7 °F /  9.3 °C 45 °F /  7.2 °C 29.4in /  994.2hPa ENE 0.9mph /  1.4km/h 8mph /  12.9km/h 87% 0.02in /  0.5mm 0 W/m2
07:57 48.6 °F /  9.2 °C 44.8 °F /  7.1 °C 29.4in /  993.9hPa North 2mph /  3.2km/h 8mph /  12.9km/h 87% 0.03in /  0.8mm 0 W/m2
08:02 48.6 °F /  9.2 °C 45.1 °F /  7.3 °C 29.4in /  994.6hPa NNW 6mph /  9.7km/h 10mph /  16.1km/h 88% 0.04in /  1.0mm 0 W/m2
08:07 48.4 °F /  9.1 °C 45.3 °F /  7.4 °C 29.4in /  994.9hPa WNW 2.9mph /  4.7km/h 14mph /  22.5km/h 89% 0.04in /  1.0mm 0 W/m2
08:12 47.5 °F /  8.6 °C 43.9 °F /  6.6 °C 29.4in /  995.6hPa West 4mph /  6.4km/h 16mph /  25.7km/h 87% 0.06in /  1.5mm 0 W/m2
08:17 45.7 °F /  7.6 °C 42.3 °F /  5.7 °C 29.4in /  995.9hPa WSW 8.9mph /  14.3km/h 12mph /  19.3km/h 88% 0.09in /  2.3mm 0 W/m2
08:22 44.6 °F /  7 °C 41.5 °F /  5.3 °C 29.4in /  995.9hPa WSW 4mph /  6.4km/h 10mph /  16.1km/h 89% 0.1in /  2.5mm 0 W/m2
08:27 44.1 °F /  6.7 °C 41.4 °F /  5.2 °C 29.4in /  996.3hPa WNW 4mph /  6.4km/h 10mph /  16.1km/h 90% 0.11in /  2.8mm 0 W/m2
08:32 43.9 °F /  6.6 °C 41.4 °F /  5.2 °C 29.4in /  996.3hPa West 6mph /  9.7km/h 9mph /  14.5km/h 91% 0.12in /  3.0mm 0 W/m2
08:37 43.5 °F /  6.4 °C 41 °F /  5 °C 29.4in /  996.3hPa West 2mph /  3.2km/h 9mph /  14.5km/h 91% 0.12in /  3.0mm 0 W/m2
08:42 43.3 °F /  6.3 °C 40.8 °F /  4.9 °C 29.4in /  996.3hPa West 2.9mph /  4.7km/h 8mph /  12.9km/h 91% 0.12in /  3.0mm 5 W/m2
08:47 43.2 °F /  6.2 °C 41 °F /  5 °C 29.4in /  996.3hPa WSW 8.1mph /  13km/h 9mph /  14.5km/h 92% 0.11in /  2.8mm 5 W/m2
08:52 43 °F /  6.1 °C 40.8 °F /  4.9 °C 29.4in /  996.6hPa West 4mph /  6.4km/h 10mph /  16.1km/h 92% 0.11in /  2.8mm 0 W/m2
08:57 42.8 °F /  6 °C 40.6 °F /  4.8 °C 29.4in /  996.6hPa West 2.9mph /  4.7km/h 6mph /  9.7km/h 92% 0.1in /  2.5mm 0 W/m2
09:02 42.6 °F /  5.9 °C 40.5 °F /  4.7 °C 29.4in /  997.0hPa West 2.9mph /  4.7km/h 6mph /  9.7km/h 92% 0.09in /  2.3mm 5 W/m2
09:07 42.6 °F /  5.9 °C 40.5 °F /  4.7 °C 29.4in /  997.0hPa WNW 2.9mph /  4.7km/h 4mph /  6.4km/h 92% 0.1in /  2.5mm 9 W/m2
09:12 42.4 °F /  5.8 °C 40.3 °F /  4.6 °C 29.4in /  997.0hPa WNW 0.9mph /  1.4km/h 7mph /  11.3km/h 92% 0.09in /  2.3mm 9 W/m2
09:17 42.4 °F /  5.8 °C 40.3 °F /  4.6 °C 29.5in /  997.3hPa SW 4mph /  6.4km/h 10mph /  16.1km/h 92% 0.06in /  1.5mm 18 W/m2
09:22 42.4 °F /  5.8 °C 40.3 °F /  4.6 °C 29.5in /  997.3hPa West 2.9mph /  4.7km/h 8mph /  12.9km/h 92% 0.06in /  1.5mm 26 W/m2
09:27 42.4 °F /  5.8 °C 40.3 °F /  4.6 °C 29.5in /  997.3hPa West 4mph /  6.4km/h 8mph /  12.9km/h 92% 0.05in /  1.3mm 39 W/m2
09:32 42.3 °F /  5.7 °C 40.1 °F /  4.5 °C 29.5in /  997.3hPa West 6.9mph /  11.1km/h 8mph /  12.9km/h 92% 0.05in /  1.3mm 39 W/m2
09:37 42.3 °F /  5.7 °C 39.7 °F /  4.3 °C 29.5in /  997.6hPa NW 4mph /  6.4km/h 6mph /  9.7km/h 91% 0.05in /  1.3mm 30 W/m2
09:42 42.3 °F /  5.7 °C 39.7 °F /  4.3 °C 29.5in /  997.3hPa Calm   3mph /  4.8km/h 91% 0.05in /  1.3mm 21 W/m2
09:47 42.3 °F /  5.7 °C 39.7 °F /  4.3 °C 29.5in /  997.3hPa NE 4mph /  6.4km/h 7mph /  11.3km/h 91% 0.04in /  1.0mm 77 W/m2
09:52 42.3 °F /  5.7 °C 39.7 °F /  4.3 °C 29.5in /  997.6hPa Calm   4mph /  6.4km/h 91% 0.04in /  1.0mm 102 W/m2
09:57 42.4 °F /  5.8 °C 40.3 °F /  4.6 °C 29.5in /  997.6hPa ENE 2mph /  3.2km/h 3mph /  4.8km/h 92% 0.04in /  1.0mm 65 W/m2
10:02 42.4 °F /  5.8 °C 40.3 °F /  4.6 °C 29.5in /  997.6hPa SSE 2mph /  3.2km/h 3mph /  4.8km/h 92% 0.04in /  1.0mm 90 W/m2
10:07 42.4 °F /  5.8 °C 40.3 °F /  4.6 °C 29.5in /  997.6hPa West 2mph /  3.2km/h 3mph /  4.8km/h 92% 0.03in /  0.8mm 65 W/m2
10:12 42.6 °F /  5.9 °C 40.5 °F /  4.7 °C 29.5in /  997.3hPa Calm   1mph /  1.6km/h 92% 0.03in /  0.8mm 74 W/m2
10:17 42.6 °F /  5.9 °C 40.5 °F /  4.7 °C 29.5in /  997.6hPa NW 4mph /  6.4km/h 4mph /  6.4km/h 92% 0.02in /  0.5mm 70 W/m2
10:22 42.6 °F /  5.9 °C 40.1 °F /  4.5 °C 29.5in /  998.0hPa ESE 4mph /  6.4km/h 4mph /  6.4km/h 91% 0.02in /  0.5mm 83 W/m2
10:27 42.8 °F /  6 °C 40.3 °F /  4.6 °C 29.5in /  998.0hPa ESE 0.9mph /  1.4km/h 4mph /  6.4km/h 91% 0.02in /  0.5mm 60 W/m2
10:32 43 °F /  6.1 °C 40.5 °F /  4.7 °C 29.5in /  998.0hPa South 0.9mph /  1.4km/h 4mph /  6.4km/h 91% 0.01in /  0.2mm 67 W/m2
10:37 43 °F /  6.1 °C 40.5 °F /  4.7 °C 29.5in /  998.0hPa SSE 0.9mph /  1.4km/h 3mph /  4.8km/h 91% 0in /  0.0mm 134 W/m2
10:42 43.2 °F /  6.2 °C 40.6 °F /  4.8 °C 29.5in /  998.0hPa West 0.9mph /  1.4km/h 7mph /  11.3km/h 91% 0in /  0.0mm 77 W/m2
10:47 43.2 °F /  6.2 °C 40.6 °F /  4.8 °C 29.5in /  998.0hPa WNW 2mph /  3.2km/h 4mph /  6.4km/h 91% 0in /  0.0mm 93 W/m2
10:52 43.3 °F /  6.3 °C 40.8 °F /  4.9 °C 29.5in /  998.0hPa WNW 0.9mph /  1.4km/h 3mph /  4.8km/h 91% 0in /  0.0mm 127 W/m2
10:57 43.5 °F /  6.4 °C 41 °F /  5 °C 29.5in /  998.0hPa NW 2.9mph /  4.7km/h 8mph /  12.9km/h 91% 0in /  0.0mm 135 W/m2
11:02 43.7 °F /  6.5 °C 41 °F /  5 °C 29.5in /  998.3hPa West 2mph /  3.2km/h 4mph /  6.4km/h 90% 0in /  0.0mm 100 W/m2
11:07 44.1 °F /  6.7 °C 41.5 °F /  5.3 °C 29.5in /  998.3hPa West 2mph /  3.2km/h 3mph /  4.8km/h 91% 0in /  0.0mm 134 W/m2
11:12 44.1 °F /  6.7 °C 41.4 °F /  5.2 °C 29.5in /  998.3hPa NW 2.9mph /  4.7km/h 6mph /  9.7km/h 90% 0in /  0.0mm 146 W/m2
11:17 44.2 °F /  6.8 °C 41.2 °F /  5.1 °C 29.5in /  998.3hPa WNW 2.9mph /  4.7km/h 9mph /  14.5km/h 89% 0in /  0.0mm 123 W/m2
11:22 44.2 °F /  6.8 °C 41.2 °F /  5.1 °C 29.5in /  998.3hPa Calm   3mph /  4.8km/h 89% 0in /  0.0mm 116 W/m2
11:27 44.2 °F /  6.8 °C 41.2 °F /  5.1 °C 29.5in /  998.3hPa WNW 6mph /  9.7km/h 9mph /  14.5km/h 89% 0in /  0.0mm 127 W/m2
11:32 44.4 °F /  6.9 °C 41.2 °F /  5.1 °C 29.5in /  998.3hPa West 0.9mph /  1.4km/h 5mph /  8km/h 88% 0in /  0.0mm 134 W/m2
11:37 44.4 °F /  6.9 °C 41.4 °F /  5.2 °C 29.5in /  998.3hPa South 0.9mph /  1.4km/h 3mph /  4.8km/h 89% 0in /  0.0mm 134 W/m2
11:42 44.4 °F /  6.9 °C 41.2 °F /  5.1 °C 29.5in /  998.3hPa NW 4mph /  6.4km/h 8mph /  12.9km/h 88% 0in /  0.0mm 163 W/m2
11:47 44.4 °F /  6.9 °C 41.2 °F /  5.1 °C 29.5in /  998.3hPa ESE 2.9mph /  4.7km/h 5mph /  8km/h 88% 0in /  0.0mm 142 W/m2
11:52 44.6 °F /  7 °C 41.2 °F /  5.1 °C 29.5in /  998.0hPa SW 2.9mph /  4.7km/h 9mph /  14.5km/h 88% 0in /  0.0mm 132 W/m2
11:57 44.6 °F /  7 °C 41.2 °F /  5.1 °C 29.5in /  998.0hPa SSW 2.9mph /  4.7km/h 3mph /  4.8km/h 88% 0in /  0.0mm 137 W/m2
12:02 44.6 °F /  7 °C 41.2 °F /  5.1 °C 29.5in /  998.0hPa NW 4mph /  6.4km/h 9mph /  14.5km/h 88% 0in /  0.0mm 142 W/m2
12:07 44.8 °F /  7.1 °C 41.2 °F /  5.1 °C 29.5in /  998.3hPa West 0.9mph /  1.4km/h 9mph /  14.5km/h 87% 0in /  0.0mm 144 W/m2
12:12 44.8 °F /  7.1 °C 41.2 °F /  5.1 °C 29.5in /  998.3hPa Calm   7mph /  11.3km/h 87% 0in /  0.0mm 146 W/m2
12:17 45 °F /  7.2 °C 41.4 °F /  5.2 °C 29.5in /  998.3hPa WNW 2mph /  3.2km/h 9mph /  14.5km/h 87% 0in /  0.0mm 139 W/m2
12:22 45.1 °F /  7.3 °C 41.2 °F /  5.1 °C 29.5in /  998.0hPa West 6.9mph /  11.1km/h 9mph /  14.5km/h 86% 0in /  0.0mm 137 W/m2
12:27 45.1 °F /  7.3 °C 41.2 °F /  5.1 °C 29.5in /  998.3hPa North 4mph /  6.4km/h 8mph /  12.9km/h 86% 0in /  0.0mm 127 W/m2
12:32 45.3 °F /  7.4 °C 41.4 °F /  5.2 °C 29.5in /  998.3hPa WNW 4.9mph /  7.9km/h 8mph /  12.9km/h 86% 0in /  0.0mm 109 W/m2
12:37 45.5 °F /  7.5 °C 41.2 °F /  5.1 °C 29.5in /  998.3hPa West 0.9mph /  1.4km/h 4mph /  6.4km/h 85% 0in /  0.0mm 104 W/m2
12:42 45.7 °F /  7.6 °C 41.2 °F /  5.1 °C 29.5in /  998.3hPa WNW 6.9mph /  11.1km/h 15mph /  24.1km/h 84% 0in /  0.0mm 100 W/m2
12:47 45.9 °F /  7.7 °C 41.4 °F /  5.2 °C 29.5in /  998.3hPa WNW 4mph /  6.4km/h 10mph /  16.1km/h 84% 0in /  0.0mm 118 W/m2
12:52 46 °F /  7.8 °C 41.2 °F /  5.1 °C 29.5in /  998.3hPa ENE 0.9mph /  1.4km/h 3mph /  4.8km/h 83% 0in /  0.0mm 105 W/m2
12:57 46.2 °F /  7.9 °C 41.4 °F /  5.2 °C 29.5in /  998.0hPa NW 0.9mph /  1.4km/h 4mph /  6.4km/h 83% 0in /  0.0mm 127 W/m2
13:02 46.4 °F /  8 °C 41.2 °F /  5.1 °C 29.5in /  998.0hPa NNE 0.9mph /  1.4km/h 4mph /  6.4km/h 82% 0in /  0.0mm 132 W/m2
13:07 46.6 °F /  8.1 °C 41 °F /  5 °C 29.5in /  998.0hPa WSW 11mph /  17.7km/h 11mph /  17.7km/h 81% 0in /  0.0mm 128 W/m2
13:12 46.8 °F /  8.2 °C 41 °F /  5 °C 29.5in /  998.0hPa SE 2mph /  3.2km/h 6mph /  9.7km/h 80% 0in /  0.0mm 121 W/m2
13:17 46.9 °F /  8.3 °C 40.8 °F /  4.9 °C 29.5in /  998.0hPa Calm   11mph /  17.7km/h 79% 0in /  0.0mm 125 W/m2
13:22 46.9 °F /  8.3 °C 40.8 °F /  4.9 °C 29.5in /  998.0hPa NW 4.9mph /  7.9km/h 6mph /  9.7km/h 79% 0in /  0.0mm 125 W/m2
13:27 46.9 °F /  8.3 °C 40.8 °F /  4.9 °C 29.5in /  997.6hPa ESE 2mph /  3.2km/h 3mph /  4.8km/h 79% 0in /  0.0mm 125 W/m2
13:32 47.1 °F /  8.4 °C 40.6 °F /  4.8 °C 29.5in /  997.6hPa NW 2mph /  3.2km/h 4mph /  6.4km/h 78% 0in /  0.0mm 128 W/m2
13:37 47.1 °F /  8.4 °C 40.6 °F /  4.8 °C 29.5in /  998.0hPa North 2.9mph /  4.7km/h 7mph /  11.3km/h 78% 0in /  0.0mm 137 W/m2
13:42 47.1 °F /  8.4 °C 40.6 °F /  4.8 °C 29.5in /  997.6hPa WNW 2mph /  3.2km/h 5mph /  8km/h 78% 0in /  0.0mm 137 W/m2
13:47 47.3 °F /  8.5 °C 40.5 °F /  4.7 °C 29.5in /  997.6hPa NW 2mph /  3.2km/h 4mph /  6.4km/h 77% 0in /  0.0mm 123 W/m2
13:52 47.5 °F /  8.6 °C 40.6 °F /  4.8 °C 29.5in /  997.3hPa ENE 8.1mph /  13km/h 10mph /  16.1km/h 77% 0in /  0.0mm 128 W/m2
13:57 47.5 °F /  8.6 °C 40.6 °F /  4.8 °C 29.5in /  997.3hPa ESE 2mph /  3.2km/h 6mph /  9.7km/h 77% 0in /  0.0mm 134 W/m2
14:02 47.7 °F /  8.7 °C 40.8 °F /  4.9 °C 29.5in /  997.3hPa West 2mph /  3.2km/h 8mph /  12.9km/h 77% 0in /  0.0mm 132 W/m2
14:07 47.8 °F /  8.8 °C 40.6 °F /  4.8 °C 29.4in /  997.0hPa NW 2mph /  3.2km/h 4mph /  6.4km/h 76% 0in /  0.0mm 135 W/m2
14:12 47.8 °F /  8.8 °C 40.6 °F /  4.8 °C 29.4in /  997.0hPa SE 2mph /  3.2km/h 8mph /  12.9km/h 76% 0in /  0.0mm 130 W/m2
14:18 48 °F /  8.9 °C 40.8 °F /  4.9 °C 29.4in /  997.0hPa WNW 2.9mph /  4.7km/h 4mph /  6.4km/h 76% 0in /  0.0mm 111 W/m2
14:23 48.2 °F /  9 °C 40.6 °F /  4.8 °C 29.4in /  997.0hPa South 4mph /  6.4km/h 7mph /  11.3km/h 75% 0in /  0.0mm 118 W/m2
14:28 48.4 °F /  9.1 °C 40.8 °F /  4.9 °C 29.4in /  997.0hPa ESE 4mph /  6.4km/h 4mph /  6.4km/h 75% 0in /  0.0mm 118 W/m2
14:33 48.4 °F /  9.1 °C 40.8 °F /  4.9 °C 29.4in /  997.0hPa NW 2mph /  3.2km/h 4mph /  6.4km/h 75% 0in /  0.0mm 113 W/m2
14:38 48.6 °F /  9.2 °C 40.6 °F /  4.8 °C 29.4in /  996.6hPa NNE 2mph /  3.2km/h 8mph /  12.9km/h 74% 0in /  0.0mm 109 W/m2
14:43 48.6 °F /  9.2 °C 40.6 °F /  4.8 °C 29.4in /  996.6hPa WNW 4mph /  6.4km/h 4mph /  6.4km/h 74% 0in /  0.0mm 109 W/m2
14:48 48.7 °F /  9.3 °C 40.8 °F /  4.9 °C 29.4in /  996.6hPa WNW 2mph /  3.2km/h 7mph /  11.3km/h 74% 0in /  0.0mm 109 W/m2
14:53 48.7 °F /  9.3 °C 40.8 °F /  4.9 °C 29.4in /  996.6hPa NE 2.9mph /  4.7km/h 8mph /  12.9km/h 74% 0in /  0.0mm 97 W/m2
14:58 48.7 °F /  9.3 °C 40.5 °F /  4.7 °C 29.4in /  996.6hPa WNW 10.1mph /  16.3km/h 10mph /  16.1km/h 73% 0in /  0.0mm 104 W/m2
15:03 48.7 °F /  9.3 °C 40.5 °F /  4.7 °C 29.4in /  996.6hPa ENE 4.9mph /  7.9km/h 7mph /  11.3km/h 73% 0in /  0.0mm 97 W/m2
15:08 48.7 °F /  9.3 °C 40.5 °F /  4.7 °C 29.4in /  996.3hPa NW 4.9mph /  7.9km/h 5mph /  8km/h 73% 0in /  0.0mm 74 W/m2
15:13 48.7 °F /  9.3 °C 40.8 °F /  4.9 °C 29.4in /  996.3hPa WNW 4.9mph /  7.9km/h 6mph /  9.7km/h 74% 0in /  0.0mm 62 W/m2
15:18 48.7 °F /  9.3 °C 40.8 °F /  4.9 °C 29.4in /  996.3hPa WNW 4mph /  6.4km/h 4mph /  6.4km/h 74% 0in /  0.0mm 53 W/m2
15:23 48.7 °F /  9.3 °C 41.2 °F /  5.1 °C 29.4in /  996.3hPa ESE 0.9mph /  1.4km/h 2mph /  3.2km/h 75% 0in /  0.0mm 35 W/m2
15:28 48.7 °F /  9.3 °C 41.2 °F /  5.1 °C 29.4in /  996.3hPa Calm   4mph /  6.4km/h 75% 0in /  0.0mm 28 W/m2
15:33 48.6 °F /  9.2 °C 41.4 °F /  5.2 °C 29.4in /  996.3hPa NE 2mph /  3.2km/h 3mph /  4.8km/h 76% 0in /  0.0mm 25 W/m2
15:38 48.6 °F /  9.2 °C 41.7 °F /  5.4 °C 29.4in /  996.3hPa North 0.9mph /  1.4km/h 2mph /  3.2km/h 77% 0in /  0.0mm 23 W/m2
15:43 48.4 °F /  9.1 °C 41.9 °F /  5.5 °C 29.4in /  996.3hPa Calm   3mph /  4.8km/h 78% 0in /  0.0mm 32 W/m2
15:48 48.4 °F /  9.1 °C 42.3 °F /  5.7 °C 29.4in /  996.3hPa North 0.9mph /  1.4km/h 3mph /  4.8km/h 79% 0in /  0.0mm 32 W/m2
15:53 48.2 °F /  9 °C 42.3 °F /  5.7 °C 29.4in /  995.9hPa West 2mph /  3.2km/h 3mph /  4.8km/h 80% 0in /  0.0mm 16 W/m2
15:58 48 °F /  8.9 °C 42.4 °F /  5.8 °C 29.4in /  995.9hPa NNE 2mph /  3.2km/h 2mph /  3.2km/h 81% 0in /  0.0mm 18 W/m2
16:03 47.8 °F /  8.8 °C 42.6 °F /  5.9 °C 29.4in /  995.9hPa ENE 2.9mph /  4.7km/h 4mph /  6.4km/h 82% 0in /  0.0mm 23 W/m2
16:08 47.8 °F /  8.8 °C 43 °F /  6.1 °C 29.4in /  995.9hPa North 0.9mph /  1.4km/h 2mph /  3.2km/h 83% 0in /  0.0mm 21 W/m2
16:13 47.7 °F /  8.7 °C 43 °F /  6.1 °C 29.4in /  995.9hPa Calm   4mph /  6.4km/h 84% 0.01in /  0.2mm 23 W/m2
16:18 47.5 °F /  8.6 °C 43.5 °F /  6.4 °C 29.4in /  995.9hPa NE 2.9mph /  4.7km/h 4mph /  6.4km/h 86% 0.01in /  0.2mm 16 W/m2
16:23 47.3 °F /  8.5 °C 43.7 °F /  6.5 °C 29.4in /  995.6hPa North 0.9mph /  1.4km/h 2mph /  3.2km/h 87% 0.01in /  0.2mm 16 W/m2
16:28 47.1 °F /  8.4 °C 43.5 °F /  6.4 °C 29.4in /  995.6hPa North 2mph /  3.2km/h 4mph /  6.4km/h 87% 0.01in /  0.2mm 14 W/m2
16:33 47.1 °F /  8.4 °C 43.7 °F /  6.5 °C 29.4in /  995.6hPa East 2.9mph /  4.7km/h 8mph /  12.9km/h 88% 0.01in /  0.2mm 9 W/m2
16:38 47.1 °F /  8.4 °C 43.7 °F /  6.5 °C 29.4in /  995.6hPa WSW 0.9mph /  1.4km/h 8mph /  12.9km/h 88% 0.01in /  0.2mm 9 W/m2
16:43 47.1 °F /  8.4 °C 44.1 °F /  6.7 °C 29.4in /  995.6hPa Calm   2mph /  3.2km/h 89% 0.01in /  0.2mm 7 W/m2
16:48 47.1 °F /  8.4 °C 44.1 °F /  6.7 °C 29.4in /  995.3hPa NNW 0.9mph /  1.4km/h 2mph /  3.2km/h 89% 0.01in /  0.2mm 5 W/m2
16:53 47.1 °F /  8.4 °C 44.1 °F /  6.7 °C 29.4in /  995.3hPa NNE 0.9mph /  1.4km/h 2mph /  3.2km/h 89% 0.01in /  0.2mm 5 W/m2
16:58 47.1 °F /  8.4 °C 44.1 °F /  6.7 °C 29.4in /  994.9hPa ESE 2mph /  3.2km/h 4mph /  6.4km/h 89% 0.01in /  0.2mm 0 W/m2
17:03 47.1 °F /  8.4 °C 44.1 °F /  6.7 °C 29.4in /  994.9hPa NW 2mph /  3.2km/h 2mph /  3.2km/h 89% 0.01in /  0.2mm 0 W/m2
17:08 47.1 °F /  8.4 °C 44.1 °F /  6.7 °C 29.4in /  994.6hPa NE 2.9mph /  4.7km/h 5mph /  8km/h 89% 0.01in /  0.2mm 0 W/m2
17:13 47.1 °F /  8.4 °C 44.1 °F /  6.7 °C 29.4in /  994.6hPa South 2mph /  3.2km/h 9mph /  14.5km/h 89% 0in /  0.0mm 0 W/m2
17:18 47.1 °F /  8.4 °C 44.1 °F /  6.7 °C 29.4in /  994.6hPa North 0.9mph /  1.4km/h 3mph /  4.8km/h 89% 0in /  0.0mm 0 W/m2
17:23 47.1 °F /  8.4 °C 44.1 °F /  6.7 °C 29.4in /  994.2hPa ENE 2.9mph /  4.7km/h 7mph /  11.3km/h 89% 0in /  0.0mm 0 W/m2
17:28 47.3 °F /  8.5 °C 44.2 °F /  6.8 °C 29.4in /  994.2hPa ESE 2mph /  3.2km/h 2mph /  3.2km/h 89% 0in /  0.0mm 0 W/m2
17:33 47.3 °F /  8.5 °C 44.2 °F /  6.8 °C 29.4in /  994.2hPa East 2mph /  3.2km/h 7mph /  11.3km/h 89% 0in /  0.0mm 0 W/m2
17:38 47.1 °F /  8.4 °C 44.4 °F /  6.9 °C 29.4in /  993.9hPa ENE 2mph /  3.2km/h 3mph /  4.8km/h 90% 0.01in /  0.2mm 0 W/m2
17:43 47.1 °F /  8.4 °C 44.4 °F /  6.9 °C 29.4in /  993.9hPa ENE 0.9mph /  1.4km/h 2mph /  3.2km/h 90% 0.02in /  0.5mm 0 W/m2
17:48 47.1 °F /  8.4 °C 44.4 °F /  6.9 °C 29.4in /  993.9hPa NE 0.9mph /  1.4km/h 4mph /  6.4km/h 90% 0.02in /  0.5mm 0 W/m2
17:53 46.9 °F /  8.3 °C 44.4 °F /  6.9 °C 29.4in /  993.9hPa ESE 2mph /  3.2km/h 6mph /  9.7km/h 91% 0.03in /  0.8mm 0 W/m2
17:58 46.9 °F /  8.3 °C 44.4 °F /  6.9 °C 29.4in /  993.9hPa Calm   3mph /  4.8km/h 91% 0.04in /  1.0mm 0 W/m2
18:03 46.8 °F /  8.2 °C 44.6 °F /  7 °C 29.3in /  993.6hPa SE 2mph /  3.2km/h 9mph /  14.5km/h 92% 0.06in /  1.5mm 0 W/m2
18:08 46.6 °F /  8.1 °C 44.4 °F /  6.9 °C 29.4in /  993.9hPa East 2.9mph /  4.7km/h 3mph /  4.8km/h 92% 0.06in /  1.5mm 0 W/m2
18:13 46.6 °F /  8.1 °C 44.6 °F /  7 °C 29.3in /  993.6hPa North 0.9mph /  1.4km/h 3mph /  4.8km/h 93% 0.07in /  1.8mm 0 W/m2
18:18 46.6 °F /  8.1 °C 44.6 °F /  7 °C 29.3in /  993.6hPa NNE 2mph /  3.2km/h 4mph /  6.4km/h 93% 0.08in /  2.0mm 0 W/m2
18:23 46.9 °F /  8.3 °C 45 °F /  7.2 °C 29.3in /  993.2hPa NE 0.9mph /  1.4km/h 9mph /  14.5km/h 93% 0.09in /  2.3mm 0 W/m2
18:28 47.1 °F /  8.4 °C 45.1 °F /  7.3 °C 29.3in /  993.2hPa North 2mph /  3.2km/h 5mph /  8km/h 93% 0.09in /  2.3mm 0 W/m2
18:33 47.7 °F /  8.7 °C 45.7 °F /  7.6 °C 29.3in /  993.2hPa North 0.9mph /  1.4km/h 8mph /  12.9km/h 93% 0.1in /  2.5mm 0 W/m2
18:38 47.8 °F /  8.8 °C 45.9 °F /  7.7 °C 29.3in /  993.2hPa NE 4.9mph /  7.9km/h 9mph /  14.5km/h 93% 0.09in /  2.3mm 0 W/m2
18:43 48 °F /  8.9 °C 46 °F /  7.8 °C 29.3in /  992.9hPa ENE 4mph /  6.4km/h 6mph /  9.7km/h 93% 0.09in /  2.3mm 0 W/m2
18:48 48.2 °F /  9 °C 46.2 °F /  7.9 °C 29.3in /  992.9hPa East 0.9mph /  1.4km/h 9mph /  14.5km/h 93% 0.09in /  2.3mm 0 W/m2
18:53 48.2 °F /  9 °C 46.2 °F /  7.9 °C 29.3in /  992.9hPa NE 2.9mph /  4.7km/h 3mph /  4.8km/h 93% 0.09in /  2.3mm 0 W/m2
18:58 48.2 °F /  9 °C 46.2 °F /  7.9 °C 29.3in /  992.5hPa WNW 2.9mph /  4.7km/h 3mph /  4.8km/h 93% 0.08in /  2.0mm 0 W/m2
19:03 48.4 °F /  9.1 °C 46.4 °F /  8 °C 29.3in /  992.5hPa NE 2.9mph /  4.7km/h 10mph /  16.1km/h 93% 0.06in /  1.5mm 0 W/m2
19:08 48.6 °F /  9.2 °C 46.6 °F /  8.1 °C 29.3in /  992.2hPa NW 4mph /  6.4km/h 5mph /  8km/h 93% 0.06in /  1.5mm 0 W/m2
19:13 48.6 °F /  9.2 °C 46.4 °F /  8 °C 29.3in /  992.2hPa NW 2mph /  3.2km/h 2mph /  3.2km/h 92% 0.05in /  1.3mm 0 W/m2
19:18 48.7 °F /  9.3 °C 46.6 °F /  8.1 °C 29.3in /  991.9hPa ENE 6mph /  9.7km/h 7mph /  11.3km/h 92% 0.03in /  0.8mm 0 W/m2
19:23 48.9 °F /  9.4 °C 46.8 °F /  8.2 °C 29.3in /  991.9hPa East 2.9mph /  4.7km/h 7mph /  11.3km/h 92% 0.03in /  0.8mm 0 W/m2
19:28 49.1 °F /  9.5 °C 46.6 °F /  8.1 °C 29.3in /  991.9hPa NNE 0.9mph /  1.4km/h 7mph /  11.3km/h 91% 0.02in /  0.5mm 0 W/m2
19:33 49.3 °F /  9.6 °C 46.8 °F /  8.2 °C 29.3in /  991.9hPa NNE 4.9mph /  7.9km/h 9mph /  14.5km/h 91% 0.02in /  0.5mm 0 W/m2
19:38 49.3 °F /  9.6 °C 46.4 °F /  8 °C 29.3in /  991.9hPa East 0.9mph /  1.4km/h 4mph /  6.4km/h 90% 0.02in /  0.5mm 0 W/m2
19:43 49.3 °F /  9.6 °C 46.4 °F /  8 °C 29.3in /  991.5hPa East 0.9mph /  1.4km/h 9mph /  14.5km/h 90% 0.02in /  0.5mm 0 W/m2
19:48 49.5 °F /  9.7 °C 46.6 °F /  8.1 °C 29.3in /  991.5hPa North 4mph /  6.4km/h 6mph /  9.7km/h 90% 0.02in /  0.5mm 0 W/m2
19:53 49.5 °F /  9.7 °C 46.6 °F /  8.1 °C 29.3in /  991.5hPa NW 2.9mph /  4.7km/h 4mph /  6.4km/h 90% 0.02in /  0.5mm 0 W/m2
19:58 49.5 °F /  9.7 °C 46.6 °F /  8.1 °C 29.3in /  991.5hPa WNW 8.9mph /  14.3km/h 10mph /  16.1km/h 90% 0.02in /  0.5mm 0 W/m2
20:03 49.6 °F /  9.8 °C 46.6 °F /  8.1 °C 29.3in /  991.5hPa East 6.9mph /  11.1km/h 13mph /  20.9km/h 89% 0.02in /  0.5mm 0 W/m2
20:08 49.5 °F /  9.7 °C 46.4 °F /  8 °C 29.3in /  991.2hPa NNE 4mph /  6.4km/h 10mph /  16.1km/h 89% 0.02in /  0.5mm 0 W/m2
20:13 49.5 °F /  9.7 °C 46.4 °F /  8 °C 29.3in /  991.2hPa WNW 8.1mph /  13km/h 13mph /  20.9km/h 89% 0.02in /  0.5mm 0 W/m2
20:18 49.6 °F /  9.8 °C 46.6 °F /  8.1 °C 29.3in /  990.9hPa NNE 4mph /  6.4km/h 9mph /  14.5km/h 89% 0.02in /  0.5mm 0 W/m2
20:23 49.6 °F /  9.8 °C 46.6 °F /  8.1 °C 29.3in /  991.2hPa NNW 4.9mph /  7.9km/h 5mph /  8km/h 89% 0.02in /  0.5mm 0 W/m2
20:29 49.6 °F /  9.8 °C 46.2 °F /  7.9 °C 29.3in /  991.2hPa ENE 4.9mph /  7.9km/h 6mph /  9.7km/h 88% 0.02in /  0.5mm 0 W/m2
20:34 49.8 °F /  9.9 °C 46.4 °F /  8 °C 29.3in /  990.9hPa NNE 4mph /  6.4km/h 13mph /  20.9km/h 88% 0.01in /  0.2mm 0 W/m2
20:39 49.8 °F /  9.9 °C 46.4 °F /  8 °C 29.3in /  990.9hPa North 4.9mph /  7.9km/h 9mph /  14.5km/h 88% 0.01in /  0.2mm 0 W/m2
20:44 50 °F /  10 °C 46.2 °F /  7.9 °C 29.3in /  991.2hPa WNW 4mph /  6.4km/h 12mph /  19.3km/h 87% 0.01in /  0.2mm 0 W/m2
20:49 49.8 °F /  9.9 °C 46 °F /  7.8 °C 29.3in /  991.2hPa North 2.9mph /  4.7km/h 8mph /  12.9km/h 87% 0in /  0.0mm 0 W/m2
20:54 50 °F /  10 °C 46.2 °F /  7.9 °C 29.3in /  991.2hPa SSW 4.9mph /  7.9km/h 8mph /  12.9km/h 87% 0in /  0.0mm 0 W/m2
20:59 50.2 °F /  10.1 °C 46.2 °F /  7.9 °C 29.3in /  991.2hPa NNW 8.1mph /  13km/h 14mph /  22.5km/h 86% 0.01in /  0.2mm 0 W/m2
21:04 50.2 °F /  10.1 °C 46.2 °F /  7.9 °C 29.3in /  991.2hPa WSW 2mph /  3.2km/h 14mph /  22.5km/h 86% 0.01in /  0.2mm 0 W/m2
21:09 50.2 °F /  10.1 °C 46.2 °F /  7.9 °C 29.3in /  991.2hPa WNW 6.9mph /  11.1km/h 11mph /  17.7km/h 86% 0.01in /  0.2mm 0 W/m2
21:14 50.2 °F /  10.1 °C 46.2 °F /  7.9 °C 29.3in /  990.9hPa NNW 2.9mph /  4.7km/h 6mph /  9.7km/h 86% 0.01in /  0.2mm 0 W/m2
21:19 50.2 °F /  10.1 °C 46.2 °F /  7.9 °C 29.3in /  990.9hPa NW 11mph /  17.7km/h 11mph /  17.7km/h 86% 0.01in /  0.2mm 0 W/m2
21:24 50.2 °F /  10.1 °C 46.2 °F /  7.9 °C 29.3in /  990.9hPa NNE 2mph /  3.2km/h 8mph /  12.9km/h 86% 0.01in /  0.2mm 0 W/m2
21:29 50.2 °F /  10.1 °C 46.2 °F /  7.9 °C 29.3in /  990.5hPa WNW 12.1mph /  19.5km/h 14mph /  22.5km/h 86% 0.02in /  0.5mm 0 W/m2
21:34 50 °F /  10 °C 46.2 °F /  7.9 °C 29.3in /  990.5hPa ENE 4mph /  6.4km/h 11mph /  17.7km/h 87% 0.02in /  0.5mm 0 W/m2
21:39 49.8 °F /  9.9 °C 46 °F /  7.8 °C 29.3in /  990.5hPa North 0.9mph /  1.4km/h 14mph /  22.5km/h 87% 0.02in /  0.5mm 0 W/m2
21:44 49.6 °F /  9.8 °C 45.9 °F /  7.7 °C 29.3in /  990.5hPa North 2mph /  3.2km/h 9mph /  14.5km/h 87% 0.02in /  0.5mm 0 W/m2
21:49 49.6 °F /  9.8 °C 45.9 °F /  7.7 °C 29.3in /  990.5hPa NNW 2.9mph /  4.7km/h 6mph /  9.7km/h 87% 0.02in /  0.5mm 0 W/m2
21:54 49.6 °F /  9.8 °C 46.2 °F /  7.9 °C 29.3in /  990.5hPa NNW 4mph /  6.4km/h 9mph /  14.5km/h 88% 0.02in /  0.5mm 0 W/m2
21:59 49.6 °F /  9.8 °C 46.2 °F /  7.9 °C 29.3in /  990.9hPa ENE 6.9mph /  11.1km/h 12mph /  19.3km/h 88% 0.02in /  0.5mm 0 W/m2
22:04 49.6 °F /  9.8 °C 46.2 °F /  7.9 °C 29.3in /  990.5hPa NW 8.1mph /  13km/h 10mph /  16.1km/h 88% 0.02in /  0.5mm 0 W/m2
22:09 49.6 °F /  9.8 °C 46.2 °F /  7.9 °C 29.2in /  990.2hPa WNW 4mph /  6.4km/h 5mph /  8km/h 88% 0.02in /  0.5mm 0 W/m2
22:14 49.8 °F /  9.9 °C 46 °F /  7.8 °C 29.3in /  990.5hPa NNW 2mph /  3.2km/h 10mph /  16.1km/h 87% 0.02in /  0.5mm 0 W/m2
22:19 49.8 °F /  9.9 °C 46 °F /  7.8 °C 29.3in /  990.5hPa West 2mph /  3.2km/h 10mph /  16.1km/h 87% 0.02in /  0.5mm 0 W/m2
22:24 49.8 °F /  9.9 °C 46 °F /  7.8 °C 29.2in /  990.2hPa NW 4.9mph /  7.9km/h 9mph /  14.5km/h 87% 0.02in /  0.5mm 0 W/m2
22:29 50 °F /  10 °C 46.2 °F /  7.9 °C 29.2in /  990.2hPa North 2mph /  3.2km/h 9mph /  14.5km/h 87% 0.02in /  0.5mm 0 W/m2
22:34 50.2 °F /  10.1 °C 46.2 °F /  7.9 °C 29.2in /  990.2hPa North 2mph /  3.2km/h 12mph /  19.3km/h 86% 0.02in /  0.5mm 0 W/m2
22:39 50.2 °F /  10.1 °C 46.2 °F /  7.9 °C 29.2in /  990.2hPa East 0.9mph /  1.4km/h 6mph /  9.7km/h 86% 0.02in /  0.5mm 0 W/m2
22:44 50.4 °F /  10.2 °C 46 °F /  7.8 °C 29.2in /  990.2hPa NNW 2mph /  3.2km/h 12mph /  19.3km/h 85% 0.02in /  0.5mm 0 W/m2
22:49 50.4 °F /  10.2 °C 46 °F /  7.8 °C 29.2in /  990.2hPa Calm   4mph /  6.4km/h 85% 0.02in /  0.5mm 0 W/m2
22:54 50.5 °F /  10.3 °C 45.5 °F /  7.5 °C 29.2in /  990.2hPa East 2mph /  3.2km/h 6mph /  9.7km/h 83% 0.01in /  0.2mm 0 W/m2
22:59 50.5 °F /  10.3 °C 45.5 °F /  7.5 °C 29.2in /  990.2hPa NW 2.9mph /  4.7km/h 10mph /  16.1km/h 83% 0.01in /  0.2mm 0 W/m2
23:04 50.7 °F /  10.4 °C 45.5 °F /  7.5 °C 29.2in /  989.8hPa NE 0.9mph /  1.4km/h 9mph /  14.5km/h 82% 0.01in /  0.2mm 0 W/m2
23:09 50.9 °F /  10.5 °C 45.3 °F /  7.4 °C 29.2in /  989.8hPa NNE 4.9mph /  7.9km/h 10mph /  16.1km/h 81% 0.01in /  0.2mm 0 W/m2
23:14 50.9 °F /  10.5 °C 45.3 °F /  7.4 °C 29.2in /  989.8hPa NE 4mph /  6.4km/h 7mph /  11.3km/h 81% 0.01in /  0.2mm 0 W/m2
23:19 50.9 °F /  10.5 °C 45 °F /  7.2 °C 29.2in /  989.8hPa West 2.9mph /  4.7km/h 5mph /  8km/h 80% 0in /  0.0mm 0 W/m2
23:24 51.1 °F /  10.6 °C 44.8 °F /  7.1 °C 29.2in /  989.8hPa NNW 6mph /  9.7km/h 10mph /  16.1km/h 79% 0in /  0.0mm 0 W/m2
23:29 51.1 °F /  10.6 °C 44.8 °F /  7.1 °C 29.2in /  989.8hPa NNW 4.9mph /  7.9km/h 9mph /  14.5km/h 79% 0in /  0.0mm 0 W/m2
23:34 51.3 °F /  10.7 °C 44.6 °F /  7 °C 29.2in /  989.8hPa WNW 2mph /  3.2km/h 5mph /  8km/h 78% 0in /  0.0mm 0 W/m2
23:39 51.3 °F /  10.7 °C 44.6 °F /  7 °C 29.2in /  989.8hPa North 4.9mph /  7.9km/h 10mph /  16.1km/h 78% 0in /  0.0mm 0 W/m2
23:44 51.3 °F /  10.7 °C 44.6 °F /  7 °C 29.2in /  990.2hPa WNW 14.1mph /  22.7km/h 14mph /  22.5km/h 78% 0in /  0.0mm 0 W/m2
23:49 51.3 °F /  10.7 °C 44.6 °F /  7 °C 29.2in /  989.8hPa NNW 4.9mph /  7.9km/h 7mph /  11.3km/h 78% 0in /  0.0mm 0 W/m2
23:54 51.1 °F /  10.6 °C 44.4 °F /  6.9 °C 29.2in /  989.8hPa ENE 2.9mph /  4.7km/h 9mph /  14.5km/h 78% 0in /  0.0mm 0 W/m2
23:59 51.1 °F /  10.6 °C 44.4 °F /  6.9 °C 29.2in /  989.8hPa ENE 13mph /  20.9km/h 13mph /  20.9km/h 78% 0in /  0.0mm 0 W/m2
Juneau County Weather
Compliments of Weather Underground - 4 mb